SWDO2: Cottonwood Ck, Seward

Data processed at Fri Jan 05 2018 23:44


All information presented herein is the property of the government of the United States of America and may be revised or deleted at any time without prior notice.
Dissemination of this information without the expressed written consent of the Public Affairs Office, Tulsa District U.S. Army Corps of Engineers is strictly prohibited.
These data are gathered electronically and, as presented, have not undergone any form of quality control. These data are not guaranteed to be valid or correct.
Go to home page.
Go to station list.

Upstream stations:

Downstream station:
Previous Day
Next Day
Current Day
    
SHEF ID:       SWDO2     Cottonwood Creek near Seward, OK
STATION TYPE:  

               PRECIP     STAGE  RIV-FLOW  BAT-LOAD
                   in        ft       cfs      volt
              Ccp-Rev   Ccp-Rev   Ccp-Rev   Ccp-Rev
(US/Central)
01/03 00:00      0.00      4.18       113     12.33
01/03 01:00      0.00      4.12       107     12.25
01/03 02:00      0.00      4.10       105     12.25
01/03 03:00      0.00      4.07       102     12.25
01/03 04:00      0.00      4.07       102     12.25
01/03 05:00      0.00      4.07       102     12.25
01/03 06:00      0.00      4.06       101     12.25
01/03 07:00      0.00      4.11       106     12.25
01/03 08:00      0.00      4.24       119     12.25
01/03 09:00      0.00      4.28       123     12.41
01/03 10:00      0.00      4.20       115     12.97
01/03 11:00      0.00      4.15       110     13.21
01/03 12:00      0.00      4.12       107     13.44
01/03 13:00      0.00      4.13       108     13.68
01/03 14:00      0.00      4.13       108     13.68
01/03 15:00      0.00      4.17       112     13.29
01/03 16:00      0.00      4.16       111     12.89
01/03 17:00      0.00      4.19       114     12.81
01/03 18:00      0.00      4.18       113     12.65
01/03 19:00      0.00      4.18       113     12.65
01/03 20:00      0.00      4.18       113     12.57
01/03 21:00      0.00      4.18       113     12.49
01/03 22:00      0.00      4.17       112     12.49
01/03 23:00      0.00      4.13       108     12.41